sensor_id;sensor_type;location;lat;lon;timestamp;P1;durP1;ratioP1;P2;durP2;ratioP2
19049;SDS011;9657;45.940;12.840;2022-11-28T00:00:14;7.67;;;6.00;;
19049;SDS011;9657;45.940;12.840;2022-11-28T00:02:43;8.37;;;6.57;;
19049;SDS011;9657;45.940;12.840;2022-11-28T00:05:11;7.33;;;5.70;;
19049;SDS011;9657;45.940;12.840;2022-11-28T00:07:38;8.93;;;6.47;;
19049;SDS011;9657;45.940;12.840;2022-11-28T00:10:05;7.33;;;5.83;;
19049;SDS011;9657;45.940;12.840;2022-11-28T00:12:35;7.90;;;5.57;;
19049;SDS011;9657;45.940;12.840;2022-11-28T00:15:02;7.93;;;6.03;;
19049;SDS011;9657;45.940;12.840;2022-11-28T00:17:30;6.17;;;5.43;;
19049;SDS011;9657;45.940;12.840;2022-11-28T00:19:59;8.70;;;6.17;;
19049;SDS011;9657;45.940;12.840;2022-11-28T00:22:26;8.50;;;5.90;;
19049;SDS011;9657;45.940;12.840;2022-11-28T00:24:53;7.27;;;5.90;;
19049;SDS011;9657;45.940;12.840;2022-11-28T00:27:20;7.17;;;5.93;;
19049;SDS011;9657;45.940;12.840;2022-11-28T00:29:47;7.13;;;5.43;;
19049;SDS011;9657;45.940;12.840;2022-11-28T00:32:14;7.07;;;5.37;;
19049;SDS011;9657;45.940;12.840;2022-11-28T00:34:41;10.50;;;5.73;;
19049;SDS011;9657;45.940;12.840;2022-11-28T00:37:10;7.07;;;5.07;;
19049;SDS011;9657;45.940;12.840;2022-11-28T00:39:37;9.23;;;5.37;;
19049;SDS011;9657;45.940;12.840;2022-11-28T00:42:04;6.30;;;5.33;;
19049;SDS011;9657;45.940;12.840;2022-11-28T00:44:31;8.10;;;5.33;;
19049;SDS011;9657;45.940;12.840;2022-11-28T00:46:58;5.77;;;5.17;;
19049;SDS011;9657;45.940;12.840;2022-11-28T00:49:25;6.80;;;5.53;;
19049;SDS011;9657;45.940;12.840;2022-11-28T00:51:52;7.07;;;5.37;;
19049;SDS011;9657;45.940;12.840;2022-11-28T00:54:21;6.60;;;5.63;;
19049;SDS011;9657;45.940;12.840;2022-11-28T00:56:48;6.17;;;5.10;;
19049;SDS011;9657;45.940;12.840;2022-11-28T00:59:15;6.80;;;5.00;;
19049;SDS011;9657;45.940;12.840;2022-11-28T01:01:42;6.30;;;5.10;;
19049;SDS011;9657;45.940;12.840;2022-11-28T01:04:10;8.03;;;5.03;;
19049;SDS011;9657;45.940;12.840;2022-11-28T01:06:39;7.50;;;5.50;;
19049;SDS011;9657;45.940;12.840;2022-11-28T01:09:08;6.80;;;4.90;;
19049;SDS011;9657;45.940;12.840;2022-11-28T01:11:40;7.57;;;5.80;;
19049;SDS011;9657;45.940;12.840;2022-11-28T01:14:08;7.33;;;5.03;;
19049;SDS011;9657;45.940;12.840;2022-11-28T01:16:36;5.83;;;4.63;;
19049;SDS011;9657;45.940;12.840;2022-11-28T01:19:03;6.10;;;4.93;;
19049;SDS011;9657;45.940;12.840;2022-11-28T01:21:31;5.77;;;4.30;;
19049;SDS011;9657;45.940;12.840;2022-11-28T01:23:58;6.63;;;4.83;;
19049;SDS011;9657;45.940;12.840;2022-11-28T01:26:26;6.27;;;4.60;;
19049;SDS011;9657;45.940;12.840;2022-11-28T01:28:55;5.67;;;4.87;;
19049;SDS011;9657;45.940;12.840;2022-11-28T01:31:24;5.03;;;4.53;;
19049;SDS011;9657;45.940;12.840;2022-11-28T01:33:53;5.93;;;4.83;;
19049;SDS011;9657;45.940;12.840;2022-11-28T01:36:21;7.17;;;4.47;;
19049;SDS011;9657;45.940;12.840;2022-11-28T01:38:49;5.70;;;4.77;;
19049;SDS011;9657;45.940;12.840;2022-11-28T01:41:19;6.90;;;4.77;;
19049;SDS011;9657;45.940;12.840;2022-11-28T01:46:52;5.60;;;4.27;;
19049;SDS011;9657;45.940;12.840;2022-11-28T01:49:20;5.20;;;4.60;;
19049;SDS011;9657;45.940;12.840;2022-11-28T01:51:51;6.63;;;4.60;;
19049;SDS011;9657;45.940;12.840;2022-11-28T01:54:23;5.00;;;4.37;;
19049;SDS011;9657;45.940;12.840;2022-11-28T01:56:53;6.07;;;4.57;;
19049;SDS011;9657;45.940;12.840;2022-11-28T01:59:23;5.97;;;4.43;;
19049;SDS011;9657;45.940;12.840;2022-11-28T02:04:30;6.93;;;4.70;;
19049;SDS011;9657;45.940;12.840;2022-11-28T02:06:58;8.30;;;4.80;;
19049;SDS011;9657;45.940;12.840;2022-11-28T02:09:25;6.43;;;4.10;;
19049;SDS011;9657;45.940;12.840;2022-11-28T02:11:57;4.70;;;3.90;;
19049;SDS011;9657;45.940;12.840;2022-11-28T02:14:42;4.83;;;3.40;;
19049;SDS011;9657;45.940;12.840;2022-11-28T02:17:19;6.50;;;3.93;;
19049;SDS011;9657;45.940;12.840;2022-11-28T02:22:58;6.77;;;3.90;;
19049;SDS011;9657;45.940;12.840;2022-11-28T02:25:38;5.50;;;3.50;;
19049;SDS011;9657;45.940;12.840;2022-11-28T02:31:24;5.10;;;3.90;;
19049;SDS011;9657;45.940;12.840;2022-11-28T02:34:11;4.77;;;3.70;;
19049;SDS011;9657;45.940;12.840;2022-11-28T02:36:46;5.67;;;4.17;;
19049;SDS011;9657;45.940;12.840;2022-11-28T02:39:19;5.87;;;3.67;;
19049;SDS011;9657;45.940;12.840;2022-11-28T02:41:55;5.57;;;3.83;;
19049;SDS011;9657;45.940;12.840;2022-11-28T02:44:29;5.07;;;3.97;;
19049;SDS011;9657;45.940;12.840;2022-11-28T02:47:04;5.80;;;3.43;;
19049;SDS011;9657;45.940;12.840;2022-11-28T02:49:36;5.67;;;4.20;;
19049;SDS011;9657;45.940;12.840;2022-11-28T02:52:08;5.70;;;3.53;;
19049;SDS011;9657;45.940;12.840;2022-11-28T02:54:40;4.67;;;3.90;;
19049;SDS011;9657;45.940;12.840;2022-11-28T02:57:08;4.43;;;3.77;;
19049;SDS011;9657;45.940;12.840;2022-11-28T02:59:44;4.33;;;3.10;;
19049;SDS011;9657;45.940;12.840;2022-11-28T03:02:14;4.23;;;3.50;;
19049;SDS011;9657;45.940;12.840;2022-11-28T03:04:48;3.80;;;3.37;;
19049;SDS011;9657;45.940;12.840;2022-11-28T03:07:26;4.23;;;3.23;;
19049;SDS011;9657;45.940;12.840;2022-11-28T03:10:08;5.13;;;3.70;;
19049;SDS011;9657;45.940;12.840;2022-11-28T03:12:50;4.73;;;3.50;;
19049;SDS011;9657;45.940;12.840;2022-11-28T03:15:22;3.77;;;3.40;;
19049;SDS011;9657;45.940;12.840;2022-11-28T03:17:58;3.53;;;3.17;;
19049;SDS011;9657;45.940;12.840;2022-11-28T03:20:36;3.83;;;3.43;;
19049;SDS011;9657;45.940;12.840;2022-11-28T03:23:12;3.93;;;3.10;;
19049;SDS011;9657;45.940;12.840;2022-11-28T03:25:46;4.23;;;3.67;;
19049;SDS011;9657;45.940;12.840;2022-11-28T03:28:21;3.97;;;3.30;;
19049;SDS011;9657;45.940;12.840;2022-11-28T03:30:54;3.97;;;3.37;;
19049;SDS011;9657;45.940;12.840;2022-11-28T03:33:26;3.30;;;3.00;;
19049;SDS011;9657;45.940;12.840;2022-11-28T03:35:59;4.63;;;3.30;;
19049;SDS011;9657;45.940;12.840;2022-11-28T03:38:30;3.63;;;3.30;;
19049;SDS011;9657;45.940;12.840;2022-11-28T03:41:02;3.17;;;2.87;;
19049;SDS011;9657;45.940;12.840;2022-11-28T03:43:35;3.30;;;2.80;;
19049;SDS011;9657;45.940;12.840;2022-11-28T03:46:07;3.73;;;2.90;;
19049;SDS011;9657;45.940;12.840;2022-11-28T03:48:39;3.97;;;2.90;;
19049;SDS011;9657;45.940;12.840;2022-11-28T03:51:11;3.00;;;2.67;;
19049;SDS011;9657;45.940;12.840;2022-11-28T03:53:47;3.63;;;3.30;;
19049;SDS011;9657;45.940;12.840;2022-11-28T03:56:20;4.83;;;3.53;;
19049;SDS011;9657;45.940;12.840;2022-11-28T03:58:53;3.77;;;2.77;;
19049;SDS011;9657;45.940;12.840;2022-11-28T04:01:28;5.50;;;3.07;;
19049;SDS011;9657;45.940;12.840;2022-11-28T04:04:03;3.80;;;3.17;;
19049;SDS011;9657;45.940;12.840;2022-11-28T04:06:44;3.23;;;2.70;;
19049;SDS011;9657;45.940;12.840;2022-11-28T04:09:19;3.07;;;2.77;;
19049;SDS011;9657;45.940;12.840;2022-11-28T04:11:52;2.83;;;2.60;;
19049;SDS011;9657;45.940;12.840;2022-11-28T04:14:22;4.00;;;2.80;;
19049;SDS011;9657;45.940;12.840;2022-11-28T04:16:57;3.50;;;2.60;;
19049;SDS011;9657;45.940;12.840;2022-11-28T04:19:34;3.37;;;3.07;;
19049;SDS011;9657;45.940;12.840;2022-11-28T04:22:06;3.47;;;2.50;;
19049;SDS011;9657;45.940;12.840;2022-11-28T04:24:40;4.00;;;2.60;;
19049;SDS011;9657;45.940;12.840;2022-11-28T04:27:12;3.00;;;2.70;;
19049;SDS011;9657;45.940;12.840;2022-11-28T04:29:43;2.70;;;2.50;;
19049;SDS011;9657;45.940;12.840;2022-11-28T04:32:13;4.40;;;3.20;;
19049;SDS011;9657;45.940;12.840;2022-11-28T04:34:44;3.30;;;2.87;;
19049;SDS011;9657;45.940;12.840;2022-11-28T04:37:17;3.23;;;2.63;;
19049;SDS011;9657;45.940;12.840;2022-11-28T04:39:46;3.20;;;2.90;;
19049;SDS011;9657;45.940;12.840;2022-11-28T04:42:15;3.93;;;2.67;;
19049;SDS011;9657;45.940;12.840;2022-11-28T04:44:46;3.30;;;2.70;;
19049;SDS011;9657;45.940;12.840;2022-11-28T04:47:16;2.97;;;2.60;;
19049;SDS011;9657;45.940;12.840;2022-11-28T04:49:44;3.53;;;2.80;;
19049;SDS011;9657;45.940;12.840;2022-11-28T04:52:11;3.13;;;2.83;;
19049;SDS011;9657;45.940;12.840;2022-11-28T04:54:47;3.87;;;3.17;;
19049;SDS011;9657;45.940;12.840;2022-11-28T04:57:20;3.43;;;2.67;;
19049;SDS011;9657;45.940;12.840;2022-11-28T04:59:53;3.10;;;2.77;;
19049;SDS011;9657;45.940;12.840;2022-11-28T05:02:21;3.20;;;2.57;;
19049;SDS011;9657;45.940;12.840;2022-11-28T05:04:50;3.87;;;3.07;;
19049;SDS011;9657;45.940;12.840;2022-11-28T05:07:20;3.50;;;2.90;;
19049;SDS011;9657;45.940;12.840;2022-11-28T05:09:49;3.13;;;2.60;;
19049;SDS011;9657;45.940;12.840;2022-11-28T05:12:16;2.20;;;2.00;;
19049;SDS011;9657;45.940;12.840;2022-11-28T05:14:44;2.93;;;2.40;;
19049;SDS011;9657;45.940;12.840;2022-11-28T05:17:11;3.10;;;2.20;;
19049;SDS011;9657;45.940;12.840;2022-11-28T05:19:38;3.47;;;2.70;;
19049;SDS011;9657;45.940;12.840;2022-11-28T05:22:05;3.00;;;2.70;;
19049;SDS011;9657;45.940;12.840;2022-11-28T05:24:32;2.57;;;2.20;;
19049;SDS011;9657;45.940;12.840;2022-11-28T05:27:01;4.13;;;2.30;;
19049;SDS011;9657;45.940;12.840;2022-11-28T05:29:28;3.23;;;2.40;;
19049;SDS011;9657;45.940;12.840;2022-11-28T05:31:55;3.50;;;2.10;;
19049;SDS011;9657;45.940;12.840;2022-11-28T05:34:23;4.00;;;2.53;;
19049;SDS011;9657;45.940;12.840;2022-11-28T05:36:50;2.77;;;2.40;;
19049;SDS011;9657;45.940;12.840;2022-11-28T05:39:17;3.03;;;2.37;;
19049;SDS011;9657;45.940;12.840;2022-11-28T05:41:44;4.37;;;2.70;;
19049;SDS011;9657;45.940;12.840;2022-11-28T05:44:12;2.83;;;2.47;;
19049;SDS011;9657;45.940;12.840;2022-11-28T05:46:39;2.97;;;2.30;;
19049;SDS011;9657;45.940;12.840;2022-11-28T05:49:07;3.27;;;2.60;;
19049;SDS011;9657;45.940;12.840;2022-11-28T05:51:34;2.60;;;2.10;;
19049;SDS011;9657;45.940;12.840;2022-11-28T05:54:01;3.30;;;2.23;;
19049;SDS011;9657;45.940;12.840;2022-11-28T05:56:28;3.13;;;2.23;;
19049;SDS011;9657;45.940;12.840;2022-11-28T05:58:55;3.13;;;2.63;;
19049;SDS011;9657;45.940;12.840;2022-11-28T06:01:24;3.10;;;2.13;;
19049;SDS011;9657;45.940;12.840;2022-11-28T06:03:52;3.80;;;2.17;;
19049;SDS011;9657;45.940;12.840;2022-11-28T06:06:25;3.13;;;2.23;;
19049;SDS011;9657;45.940;12.840;2022-11-28T06:08:53;3.63;;;2.43;;
19049;SDS011;9657;45.940;12.840;2022-11-28T06:11:21;2.87;;;2.20;;
19049;SDS011;9657;45.940;12.840;2022-11-28T06:13:50;3.60;;;2.20;;
19049;SDS011;9657;45.940;12.840;2022-11-28T06:16:18;2.93;;;2.33;;
19049;SDS011;9657;45.940;12.840;2022-11-28T06:18:50;2.70;;;2.23;;
19049;SDS011;9657;45.940;12.840;2022-11-28T06:21:18;2.97;;;2.43;;
19049;SDS011;9657;45.940;12.840;2022-11-28T06:23:45;2.97;;;2.47;;
19049;SDS011;9657;45.940;12.840;2022-11-28T06:26:13;2.37;;;2.17;;
19049;SDS011;9657;45.940;12.840;2022-11-28T06:28:42;2.43;;;2.23;;
19049;SDS011;9657;45.940;12.840;2022-11-28T06:31:09;2.90;;;2.27;;
19049;SDS011;9657;45.940;12.840;2022-11-28T06:33:37;2.57;;;2.23;;
19049;SDS011;9657;45.940;12.840;2022-11-28T06:36:07;2.50;;;2.03;;
19049;SDS011;9657;45.940;12.840;2022-11-28T06:38:35;3.57;;;2.30;;
19049;SDS011;9657;45.940;12.840;2022-11-28T06:41:02;2.57;;;2.30;;
19049;SDS011;9657;45.940;12.840;2022-11-28T06:43:31;2.67;;;2.17;;
19049;SDS011;9657;45.940;12.840;2022-11-28T06:45:59;2.60;;;2.40;;
19049;SDS011;9657;45.940;12.840;2022-11-28T06:48:26;2.73;;;2.03;;
19049;SDS011;9657;45.940;12.840;2022-11-28T06:50:53;4.73;;;3.13;;
19049;SDS011;9657;45.940;12.840;2022-11-28T06:53:29;2.73;;;2.37;;
19049;SDS011;9657;45.940;12.840;2022-11-28T06:55:56;2.40;;;2.10;;
19049;SDS011;9657;45.940;12.840;2022-11-28T06:58:23;3.43;;;2.70;;
19049;SDS011;9657;45.940;12.840;2022-11-28T07:00:50;3.47;;;2.23;;
19049;SDS011;9657;45.940;12.840;2022-11-28T07:03:17;2.40;;;2.20;;
19049;SDS011;9657;45.940;12.840;2022-11-28T07:05:44;3.13;;;2.13;;
19049;SDS011;9657;45.940;12.840;2022-11-28T07:08:11;3.50;;;2.20;;
19049;SDS011;9657;45.940;12.840;2022-11-28T07:10:40;2.70;;;2.00;;
19049;SDS011;9657;45.940;12.840;2022-11-28T07:13:07;4.80;;;2.50;;
19049;SDS011;9657;45.940;12.840;2022-11-28T07:15:34;2.60;;;2.13;;
19049;SDS011;9657;45.940;12.840;2022-11-28T07:18:01;2.73;;;1.93;;
19049;SDS011;9657;45.940;12.840;2022-11-28T07:20:28;4.20;;;2.40;;
19049;SDS011;9657;45.940;12.840;2022-11-28T07:22:56;3.10;;;2.40;;
19049;SDS011;9657;45.940;12.840;2022-11-28T07:25:23;2.77;;;2.20;;
19049;SDS011;9657;45.940;12.840;2022-11-28T07:27:51;4.27;;;2.63;;
19049;SDS011;9657;45.940;12.840;2022-11-28T07:30:18;3.07;;;2.17;;
19049;SDS011;9657;45.940;12.840;2022-11-28T07:32:47;2.33;;;2.13;;
19049;SDS011;9657;45.940;12.840;2022-11-28T07:35:14;3.23;;;2.13;;
19049;SDS011;9657;45.940;12.840;2022-11-28T07:37:41;2.50;;;2.07;;
19049;SDS011;9657;45.940;12.840;2022-11-28T07:40:09;2.90;;;2.23;;
19049;SDS011;9657;45.940;12.840;2022-11-28T07:42:37;2.17;;;1.97;;
19049;SDS011;9657;45.940;12.840;2022-11-28T07:45:06;3.10;;;2.47;;
19049;SDS011;9657;45.940;12.840;2022-11-28T07:47:34;3.20;;;2.30;;
19049;SDS011;9657;45.940;12.840;2022-11-28T07:50:02;5.03;;;2.17;;
19049;SDS011;9657;45.940;12.840;2022-11-28T07:52:29;2.33;;;2.13;;
19049;SDS011;9657;45.940;12.840;2022-11-28T07:54:56;3.10;;;2.47;;
19049;SDS011;9657;45.940;12.840;2022-11-28T07:57:23;2.30;;;2.10;;
19049;SDS011;9657;45.940;12.840;2022-11-28T07:59:50;3.67;;;2.03;;
19049;SDS011;9657;45.940;12.840;2022-11-28T08:02:19;2.33;;;1.90;;
19049;SDS011;9657;45.940;12.840;2022-11-28T08:04:46;2.40;;;2.20;;
19049;SDS011;9657;45.940;12.840;2022-11-28T08:07:13;2.93;;;2.07;;
19049;SDS011;9657;45.940;12.840;2022-11-28T08:09:40;3.90;;;2.10;;
19049;SDS011;9657;45.940;12.840;2022-11-28T08:12:07;3.80;;;2.30;;
19049;SDS011;9657;45.940;12.840;2022-11-28T08:14:34;3.03;;;1.93;;
19049;SDS011;9657;45.940;12.840;2022-11-28T08:17:01;4.30;;;2.30;;
19049;SDS011;9657;45.940;12.840;2022-11-28T08:19:29;3.30;;;2.20;;
19049;SDS011;9657;45.940;12.840;2022-11-28T08:21:56;3.53;;;2.17;;
19049;SDS011;9657;45.940;12.840;2022-11-28T08:24:23;3.10;;;2.00;;
19049;SDS011;9657;45.940;12.840;2022-11-28T08:26:51;4.47;;;2.13;;
19049;SDS011;9657;45.940;12.840;2022-11-28T08:29:18;3.00;;;2.17;;
19049;SDS011;9657;45.940;12.840;2022-11-28T08:31:45;3.33;;;2.30;;
19049;SDS011;9657;45.940;12.840;2022-11-28T08:34:12;3.90;;;2.13;;
19049;SDS011;9657;45.940;12.840;2022-11-28T08:36:41;2.17;;;1.83;;
19049;SDS011;9657;45.940;12.840;2022-11-28T08:39:09;2.93;;;2.07;;
19049;SDS011;9657;45.940;12.840;2022-11-28T08:41:36;3.07;;;1.97;;
19049;SDS011;9657;45.940;12.840;2022-11-28T08:44:03;2.47;;;2.00;;
19049;SDS011;9657;45.940;12.840;2022-11-28T08:46:31;3.57;;;2.23;;
19049;SDS011;9657;45.940;12.840;2022-11-28T08:48:59;3.37;;;1.80;;
19049;SDS011;9657;45.940;12.840;2022-11-28T08:51:26;3.03;;;2.00;;
19049;SDS011;9657;45.940;12.840;2022-11-28T08:53:56;2.87;;;2.10;;
19049;SDS011;9657;45.940;12.840;2022-11-28T08:56:23;3.47;;;2.57;;
19049;SDS011;9657;45.940;12.840;2022-11-28T08:58:50;3.27;;;2.20;;
19049;SDS011;9657;45.940;12.840;2022-11-28T09:01:17;3.03;;;2.03;;
19049;SDS011;9657;45.940;12.840;2022-11-28T09:03:46;3.93;;;2.27;;
19049;SDS011;9657;45.940;12.840;2022-11-28T09:06:13;4.13;;;2.47;;
19049;SDS011;9657;45.940;12.840;2022-11-28T09:08:41;4.03;;;2.27;;
19049;SDS011;9657;45.940;12.840;2022-11-28T09:11:12;3.43;;;2.50;;
19049;SDS011;9657;45.940;12.840;2022-11-28T09:13:40;4.73;;;2.40;;
19049;SDS011;9657;45.940;12.840;2022-11-28T09:16:07;5.80;;;2.50;;
19049;SDS011;9657;45.940;12.840;2022-11-28T09:18:35;3.97;;;2.60;;
19049;SDS011;9657;45.940;12.840;2022-11-28T09:21:02;5.37;;;2.77;;
19049;SDS011;9657;45.940;12.840;2022-11-28T09:23:33;3.53;;;2.43;;
19049;SDS011;9657;45.940;12.840;2022-11-28T09:26:00;4.07;;;2.80;;
19049;SDS011;9657;45.940;12.840;2022-11-28T09:28:34;7.10;;;2.57;;
19049;SDS011;9657;45.940;12.840;2022-11-28T09:31:01;5.03;;;2.80;;
19049;SDS011;9657;45.940;12.840;2022-11-28T09:33:30;6.33;;;2.57;;
19049;SDS011;9657;45.940;12.840;2022-11-28T09:35:58;4.90;;;2.43;;
19049;SDS011;9657;45.940;12.840;2022-11-28T09:38:29;3.57;;;2.33;;
19049;SDS011;9657;45.940;12.840;2022-11-28T09:40:56;4.73;;;2.80;;
19049;SDS011;9657;45.940;12.840;2022-11-28T09:43:25;4.90;;;2.90;;
19049;SDS011;9657;45.940;12.840;2022-11-28T09:45:58;5.20;;;2.40;;
19049;SDS011;9657;45.940;12.840;2022-11-28T09:48:28;3.77;;;2.60;;
19049;SDS011;9657;45.940;12.840;2022-11-28T09:51:00;4.40;;;2.20;;
19049;SDS011;9657;45.940;12.840;2022-11-28T09:53:34;2.73;;;2.50;;
19049;SDS011;9657;45.940;12.840;2022-11-28T09:56:04;3.30;;;2.73;;
19049;SDS011;9657;45.940;12.840;2022-11-28T09:58:38;3.10;;;2.30;;
19049;SDS011;9657;45.940;12.840;2022-11-28T10:01:13;4.93;;;2.03;;
19049;SDS011;9657;45.940;12.840;2022-11-28T10:03:45;5.20;;;2.40;;
19049;SDS011;9657;45.940;12.840;2022-11-28T10:06:19;6.73;;;3.07;;
19049;SDS011;9657;45.940;12.840;2022-11-28T10:09:04;3.57;;;2.50;;
19049;SDS011;9657;45.940;12.840;2022-11-28T10:11:45;3.90;;;2.57;;
19049;SDS011;9657;45.940;12.840;2022-11-28T10:14:39;4.13;;;2.10;;
19049;SDS011;9657;45.940;12.840;2022-11-28T10:17:29;7.90;;;3.23;;
19049;SDS011;9657;45.940;12.840;2022-11-28T10:20:03;6.77;;;3.03;;
19049;SDS011;9657;45.940;12.840;2022-11-28T10:22:37;3.83;;;2.60;;
19049;SDS011;9657;45.940;12.840;2022-11-28T10:25:10;4.47;;;2.47;;
19049;SDS011;9657;45.940;12.840;2022-11-28T10:27:42;5.00;;;2.63;;
19049;SDS011;9657;45.940;12.840;2022-11-28T10:30:14;4.50;;;2.57;;
19049;SDS011;9657;45.940;12.840;2022-11-28T10:32:48;4.37;;;3.13;;
19049;SDS011;9657;45.940;12.840;2022-11-28T10:35:23;4.23;;;2.60;;
19049;SDS011;9657;45.940;12.840;2022-11-28T10:37:53;4.00;;;2.73;;
19049;SDS011;9657;45.940;12.840;2022-11-28T10:40:23;4.20;;;2.67;;
19049;SDS011;9657;45.940;12.840;2022-11-28T10:42:55;3.40;;;2.60;;
19049;SDS011;9657;45.940;12.840;2022-11-28T10:45:28;6.23;;;2.70;;
19049;SDS011;9657;45.940;12.840;2022-11-28T10:48:15;7.20;;;3.13;;
19049;SDS011;9657;45.940;12.840;2022-11-28T10:50:49;12.20;;;2.93;;
19049;SDS011;9657;45.940;12.840;2022-11-28T10:53:26;4.73;;;2.90;;
19049;SDS011;9657;45.940;12.840;2022-11-28T10:56:04;3.43;;;2.73;;
19049;SDS011;9657;45.940;12.840;2022-11-28T10:58:41;5.97;;;3.03;;
19049;SDS011;9657;45.940;12.840;2022-11-28T11:01:15;4.33;;;2.70;;
19049;SDS011;9657;45.940;12.840;2022-11-28T11:03:44;6.47;;;2.70;;
19049;SDS011;9657;45.940;12.840;2022-11-28T11:06:11;5.77;;;2.90;;
19049;SDS011;9657;45.940;12.840;2022-11-28T11:08:39;4.87;;;2.90;;
19049;SDS011;9657;45.940;12.840;2022-11-28T11:11:09;3.30;;;2.90;;
19049;SDS011;9657;45.940;12.840;2022-11-28T11:13:55;5.00;;;3.13;;
19049;SDS011;9657;45.940;12.840;2022-11-28T11:16:25;3.20;;;2.53;;
19049;SDS011;9657;45.940;12.840;2022-11-28T11:19:17;4.37;;;2.93;;
19049;SDS011;9657;45.940;12.840;2022-11-28T11:21:56;3.33;;;2.80;;
19049;SDS011;9657;45.940;12.840;2022-11-28T11:24:28;5.67;;;2.90;;
19049;SDS011;9657;45.940;12.840;2022-11-28T11:27:01;5.27;;;3.07;;
19049;SDS011;9657;45.940;12.840;2022-11-28T11:29:33;3.70;;;2.70;;
19049;SDS011;9657;45.940;12.840;2022-11-28T11:32:03;3.90;;;2.67;;
19049;SDS011;9657;45.940;12.840;2022-11-28T11:34:35;5.47;;;2.60;;
19049;SDS011;9657;45.940;12.840;2022-11-28T11:37:29;5.50;;;2.90;;
19049;SDS011;9657;45.940;12.840;2022-11-28T11:39:57;6.03;;;3.30;;
19049;SDS011;9657;45.940;12.840;2022-11-28T11:42:26;4.60;;;3.20;;
19049;SDS011;9657;45.940;12.840;2022-11-28T11:44:54;5.40;;;2.80;;
19049;SDS011;9657;45.940;12.840;2022-11-28T11:47:37;4.00;;;2.80;;
19049;SDS011;9657;45.940;12.840;2022-11-28T11:50:14;5.67;;;3.00;;
19049;SDS011;9657;45.940;12.840;2022-11-28T11:52:42;5.93;;;3.10;;
19049;SDS011;9657;45.940;12.840;2022-11-28T11:55:10;5.20;;;3.00;;
19049;SDS011;9657;45.940;12.840;2022-11-28T11:57:39;4.60;;;3.00;;
19049;SDS011;9657;45.940;12.840;2022-11-28T12:00:13;4.40;;;2.90;;
19049;SDS011;9657;45.940;12.840;2022-11-28T12:02:44;5.03;;;3.30;;
19049;SDS011;9657;45.940;12.840;2022-11-28T12:05:16;10.80;;;3.40;;
19049;SDS011;9657;45.940;12.840;2022-11-28T12:07:47;9.50;;;2.90;;
19049;SDS011;9657;45.940;12.840;2022-11-28T12:10:20;3.77;;;2.83;;
19049;SDS011;9657;45.940;12.840;2022-11-28T12:12:50;7.20;;;2.87;;
19049;SDS011;9657;45.940;12.840;2022-11-28T12:15:19;5.40;;;3.07;;
19049;SDS011;9657;45.940;12.840;2022-11-28T12:18:00;7.07;;;2.93;;
19049;SDS011;9657;45.940;12.840;2022-11-28T12:20:40;9.37;;;2.63;;
19049;SDS011;9657;45.940;12.840;2022-11-28T12:23:19;5.50;;;3.00;;
19049;SDS011;9657;45.940;12.840;2022-11-28T12:26:04;5.03;;;3.13;;
19049;SDS011;9657;45.940;12.840;2022-11-28T12:28:39;5.77;;;3.13;;
19049;SDS011;9657;45.940;12.840;2022-11-28T12:31:15;5.57;;;3.33;;
19049;SDS011;9657;45.940;12.840;2022-11-28T12:33:51;5.17;;;3.10;;
19049;SDS011;9657;45.940;12.840;2022-11-28T12:36:31;5.73;;;3.37;;
19049;SDS011;9657;45.940;12.840;2022-11-28T12:39:11;5.47;;;3.10;;
19049;SDS011;9657;45.940;12.840;2022-11-28T12:41:56;6.17;;;3.10;;
19049;SDS011;9657;45.940;12.840;2022-11-28T12:44:53;5.13;;;3.57;;
19049;SDS011;9657;45.940;12.840;2022-11-28T12:47:42;4.13;;;3.00;;
19049;SDS011;9657;45.940;12.840;2022-11-28T12:50:20;4.57;;;3.00;;
19049;SDS011;9657;45.940;12.840;2022-11-28T12:53:00;12.40;;;4.07;;
19049;SDS011;9657;45.940;12.840;2022-11-28T12:55:38;5.00;;;2.80;;
19049;SDS011;9657;45.940;12.840;2022-11-28T12:58:12;5.13;;;3.20;;
19049;SDS011;9657;45.940;12.840;2022-11-28T13:00:48;6.70;;;3.37;;
19049;SDS011;9657;45.940;12.840;2022-11-28T13:03:25;5.43;;;3.13;;
19049;SDS011;9657;45.940;12.840;2022-11-28T13:06:06;3.83;;;3.40;;
19049;SDS011;9657;45.940;12.840;2022-11-28T13:08:47;5.60;;;3.53;;
19049;SDS011;9657;45.940;12.840;2022-11-28T13:11:38;5.20;;;3.20;;
19049;SDS011;9657;45.940;12.840;2022-11-28T13:14:19;5.97;;;3.80;;
19049;SDS011;9657;45.940;12.840;2022-11-28T13:16:55;7.13;;;4.10;;
19049;SDS011;9657;45.940;12.840;2022-11-28T13:19:38;6.37;;;3.77;;
19049;SDS011;9657;45.940;12.840;2022-11-28T13:22:14;7.33;;;3.20;;
19049;SDS011;9657;45.940;12.840;2022-11-28T13:24:50;6.57;;;3.40;;
19049;SDS011;9657;45.940;12.840;2022-11-28T13:27:26;5.97;;;3.83;;
19049;SDS011;9657;45.940;12.840;2022-11-28T13:30:03;5.97;;;4.20;;
19049;SDS011;9657;45.940;12.840;2022-11-28T13:32:40;6.63;;;3.90;;
19049;SDS011;9657;45.940;12.840;2022-11-28T13:35:11;8.20;;;4.33;;
19049;SDS011;9657;45.940;12.840;2022-11-28T13:37:41;6.33;;;4.67;;
19049;SDS011;9657;45.940;12.840;2022-11-28T13:40:18;12.53;;;4.40;;
19049;SDS011;9657;45.940;12.840;2022-11-28T13:42:50;11.17;;;4.37;;
19049;SDS011;9657;45.940;12.840;2022-11-28T13:45:26;11.70;;;5.03;;
19049;SDS011;9657;45.940;12.840;2022-11-28T13:47:55;7.07;;;5.27;;
19049;SDS011;9657;45.940;12.840;2022-11-28T13:50:32;9.97;;;4.57;;
19049;SDS011;9657;45.940;12.840;2022-11-28T13:53:01;14.37;;;5.13;;
19049;SDS011;9657;45.940;12.840;2022-11-28T13:55:46;11.13;;;4.30;;
19049;SDS011;9657;45.940;12.840;2022-11-28T13:58:18;9.40;;;5.77;;
19049;SDS011;9657;45.940;12.840;2022-11-28T14:03:44;10.60;;;5.20;;
19049;SDS011;9657;45.940;12.840;2022-11-28T14:06:14;10.87;;;4.83;;
19049;SDS011;9657;45.940;12.840;2022-11-28T14:08:44;11.07;;;4.87;;
19049;SDS011;9657;45.940;12.840;2022-11-28T14:14:23;10.07;;;5.20;;
19049;SDS011;9657;45.940;12.840;2022-11-28T14:17:16;7.63;;;4.70;;
19049;SDS011;9657;45.940;12.840;2022-11-28T14:20:01;9.50;;;5.03;;
19049;SDS011;9657;45.940;12.840;2022-11-28T14:22:41;9.90;;;4.90;;
19049;SDS011;9657;45.940;12.840;2022-11-28T14:25:19;7.80;;;4.80;;
19049;SDS011;9657;45.940;12.840;2022-11-28T14:27:53;9.03;;;5.30;;
19049;SDS011;9657;45.940;12.840;2022-11-28T14:30:24;10.10;;;5.07;;
19049;SDS011;9657;45.940;12.840;2022-11-28T14:32:56;10.20;;;5.37;;
19049;SDS011;9657;45.940;12.840;2022-11-28T14:38:41;14.70;;;5.60;;
19049;SDS011;9657;45.940;12.840;2022-11-28T14:41:09;10.40;;;4.93;;
19049;SDS011;9657;45.940;12.840;2022-11-28T14:43:39;12.77;;;5.90;;
19049;SDS011;9657;45.940;12.840;2022-11-28T14:46:28;11.50;;;5.27;;
19049;SDS011;9657;45.940;12.840;2022-11-28T14:54:34;9.63;;;4.40;;
19049;SDS011;9657;45.940;12.840;2022-11-28T14:57:02;8.80;;;4.70;;
19049;SDS011;9657;45.940;12.840;2022-11-28T14:59:37;10.33;;;5.07;;
19049;SDS011;9657;45.940;12.840;2022-11-28T15:02:14;10.03;;;5.07;;
19049;SDS011;9657;45.940;12.840;2022-11-28T15:04:59;11.63;;;4.70;;
19049;SDS011;9657;45.940;12.840;2022-11-28T15:07:42;8.43;;;5.10;;
19049;SDS011;9657;45.940;12.840;2022-11-28T15:10:20;8.10;;;4.20;;
19049;SDS011;9657;45.940;12.840;2022-11-28T15:12:58;10.87;;;5.00;;
19049;SDS011;9657;45.940;12.840;2022-11-28T15:15:31;8.57;;;4.70;;
19049;SDS011;9657;45.940;12.840;2022-11-28T15:18:00;8.43;;;4.10;;
19049;SDS011;9657;45.940;12.840;2022-11-28T15:20:33;6.77;;;4.43;;
19049;SDS011;9657;45.940;12.840;2022-11-28T15:23:04;10.80;;;3.83;;
19049;SDS011;9657;45.940;12.840;2022-11-28T15:25:50;10.83;;;4.00;;
19049;SDS011;9657;45.940;12.840;2022-11-28T15:28:19;11.43;;;4.07;;
19049;SDS011;9657;45.940;12.840;2022-11-28T15:30:49;13.70;;;4.40;;
19049;SDS011;9657;45.940;12.840;2022-11-28T15:33:19;11.10;;;4.20;;
19049;SDS011;9657;45.940;12.840;2022-11-28T15:35:53;12.13;;;4.20;;
19049;SDS011;9657;45.940;12.840;2022-11-28T15:38:22;12.40;;;4.67;;